createdAt,value
2022-12-07T00:01:06.696Z,0.25
2022-12-07T00:03:35.123Z,0.40
2022-12-07T00:06:05.226Z,0.30
2022-12-07T00:08:33.632Z,0.35
2022-12-07T00:11:03.957Z,0.32
2022-12-07T00:13:32.328Z,0.57
2022-12-07T00:16:02.861Z,0.50
2022-12-07T00:18:31.312Z,0.50
2022-12-07T00:21:04.075Z,0.40
2022-12-07T00:23:32.419Z,0.63
2022-12-07T00:26:06.002Z,0.35
2022-12-07T00:28:34.795Z,0.40
2022-12-07T00:31:04.871Z,0.40
2022-12-07T00:33:33.386Z,0.35
2022-12-07T00:36:02.052Z,0.40
2022-12-07T00:38:32.333Z,0.43
2022-12-07T00:41:01.413Z,0.35
2022-12-07T00:43:29.769Z,0.45
2022-12-07T00:45:58.190Z,0.32
2022-12-07T00:48:26.667Z,0.28
2022-12-07T00:50:54.953Z,0.45
2022-12-07T00:53:23.785Z,0.25
2022-12-07T00:55:53.994Z,0.30
2022-12-07T00:58:22.338Z,0.20
2022-12-07T01:00:50.777Z,0.30
2022-12-07T01:03:19.375Z,0.40
2022-12-07T01:05:53.637Z,0.43
2022-12-07T01:08:22.064Z,0.38
2022-12-07T01:10:50.520Z,0.20
2022-12-07T01:13:20.184Z,0.22
2022-12-07T01:15:48.660Z,0.50
2022-12-07T01:18:16.961Z,0.28
2022-12-07T01:20:45.318Z,0.30
2022-12-07T01:23:13.616Z,0.40
2022-12-07T01:25:41.955Z,0.40
2022-12-07T01:28:10.340Z,0.22
2022-12-07T01:30:40.148Z,0.20
2022-12-07T01:33:08.512Z,0.43
2022-12-07T01:35:36.816Z,0.40
2022-12-07T01:38:05.113Z,0.28
2022-12-07T01:40:33.455Z,0.20
2022-12-07T01:43:01.749Z,0.30
2022-12-07T01:45:43.943Z,0.40
2022-12-07T01:48:12.688Z,0.40
2022-12-07T01:50:40.997Z,0.30
2022-12-07T01:53:09.950Z,0.30
2022-12-07T01:55:39.462Z,0.30
2022-12-07T01:58:07.806Z,0.35
2022-12-07T02:00:36.141Z,0.47
2022-12-07T02:03:07.611Z,0.30
2022-12-07T02:05:36.406Z,0.20
2022-12-07T02:08:04.777Z,0.40
2022-12-07T02:10:33.461Z,0.30
2022-12-07T02:13:03.336Z,0.20
2022-12-07T02:15:40.417Z,0.20
2022-12-07T02:20:40.456Z,0.30
2022-12-07T02:23:41.495Z,0.40
2022-12-07T02:26:30.097Z,0.35
2022-12-07T02:29:11.269Z,0.20
2022-12-07T02:31:40.723Z,0.25
2022-12-07T02:34:11.472Z,0.20
2022-12-07T02:36:41.703Z,0.50
2022-12-07T02:39:13.799Z,0.30
2022-12-07T02:41:44.719Z,0.30
2022-12-07T02:44:15.553Z,0.40
2022-12-07T02:46:45.264Z,0.30
2022-12-07T02:49:31.269Z,0.20
2022-12-07T02:51:59.714Z,0.22
2022-12-07T02:54:28.065Z,0.32
2022-12-07T02:57:00.416Z,0.40
2022-12-07T02:59:35.201Z,0.35
2022-12-07T03:02:09.050Z,0.40
2022-12-07T03:04:43.992Z,0.20
2022-12-07T03:07:14.332Z,0.30
2022-12-07T03:09:45.703Z,0.20
2022-12-07T03:12:21.568Z,0.20
2022-12-07T03:14:54.809Z,0.50
2022-12-07T03:17:23.952Z,0.20
2022-12-07T03:19:52.489Z,0.52
2022-12-07T03:22:25.759Z,0.20
2022-12-07T03:24:58.302Z,0.47
2022-12-07T03:27:27.937Z,0.40
2022-12-07T03:30:00.909Z,0.30
2022-12-07T03:32:31.702Z,1.10
2022-12-07T03:35:02.505Z,0.30
2022-12-07T03:37:34.923Z,0.32
2022-12-07T03:40:05.969Z,0.30
2022-12-07T03:42:34.297Z,0.20
2022-12-07T03:45:04.275Z,0.30
2022-12-07T03:47:33.912Z,0.40
2022-12-07T03:50:07.367Z,0.20
2022-12-07T03:52:39.691Z,0.10
2022-12-07T03:55:10.581Z,0.28
2022-12-07T03:57:38.932Z,0.22
2022-12-07T04:00:09.944Z,0.30
2022-12-07T04:02:38.276Z,0.38
2022-12-07T04:05:07.713Z,0.20
2022-12-07T04:07:36.067Z,0.40
2022-12-07T04:10:04.960Z,0.20
2022-12-07T04:12:33.548Z,0.30
2022-12-07T04:15:01.916Z,0.35
2022-12-07T04:17:34.795Z,0.40
2022-12-07T04:20:08.782Z,0.20
2022-12-07T04:22:37.114Z,0.20
2022-12-07T04:25:06.192Z,0.20
2022-12-07T04:27:34.529Z,0.40
2022-12-07T04:30:03.308Z,0.20
2022-12-07T04:32:33.166Z,0.22
2022-12-07T04:35:01.513Z,0.40
2022-12-07T04:37:29.902Z,0.20
2022-12-07T04:39:58.240Z,0.20
2022-12-07T04:42:30.556Z,0.20
2022-12-07T04:45:01.844Z,0.43
2022-12-07T04:47:30.165Z,0.20
2022-12-07T04:50:00.236Z,0.38
2022-12-07T04:52:28.862Z,0.20
2022-12-07T04:54:57.217Z,0.30
2022-12-07T04:57:25.578Z,0.30
2022-12-07T04:59:53.885Z,0.20
2022-12-07T05:02:22.462Z,0.22
2022-12-07T05:04:56.580Z,0.28
2022-12-07T05:07:31.088Z,0.20
2022-12-07T05:09:59.500Z,0.20
2022-12-07T05:12:28.068Z,0.30
2022-12-07T05:14:56.408Z,0.28
2022-12-07T05:17:24.695Z,0.20
2022-12-07T05:19:53.021Z,0.30
2022-12-07T05:22:21.375Z,0.40
2022-12-07T05:24:51.042Z,0.30
2022-12-07T05:27:19.419Z,0.20
2022-12-07T05:29:47.753Z,0.20
2022-12-07T05:32:16.172Z,0.20
2022-12-07T05:34:44.484Z,0.30
2022-12-07T05:37:12.845Z,0.20
2022-12-07T05:39:43.637Z,0.28
2022-12-07T05:42:14.910Z,0.30
2022-12-07T05:44:43.921Z,0.20
2022-12-07T05:47:12.263Z,0.32
2022-12-07T05:49:47.837Z,0.15
2022-12-07T05:52:19.419Z,0.25
2022-12-07T05:54:47.710Z,0.20
2022-12-07T05:57:20.055Z,0.20
2022-12-07T05:59:47.410Z,0.30
2022-12-07T06:02:16.549Z,0.22
2022-12-07T06:04:46.959Z,0.28
2022-12-07T06:07:16.221Z,0.20
2022-12-07T06:09:44.605Z,0.30
2022-12-07T06:12:31.104Z,0.30
2022-12-07T06:15:00.819Z,0.30
2022-12-07T06:17:29.146Z,0.20
2022-12-07T06:19:57.489Z,0.22
2022-12-07T06:22:25.838Z,0.22
2022-12-07T06:24:55.349Z,0.15
2022-12-07T06:27:23.749Z,0.20
2022-12-07T06:29:52.056Z,0.30
2022-12-07T06:32:21.709Z,0.20
2022-12-07T06:34:51.798Z,0.20
2022-12-07T06:37:21.325Z,0.40
2022-12-07T06:39:49.640Z,0.10
2022-12-07T06:42:17.941Z,0.30
2022-12-07T06:44:46.244Z,0.30
2022-12-07T06:47:40.456Z,0.30
2022-12-07T06:50:08.913Z,0.30
2022-12-07T06:52:37.253Z,0.20
2022-12-07T06:55:06.254Z,0.73
2022-12-07T06:57:34.552Z,0.47
2022-12-07T07:00:03.645Z,0.20
2022-12-07T07:02:32.297Z,0.75
2022-12-07T07:05:00.840Z,0.43
2022-12-07T07:07:30.837Z,0.40
2022-12-07T07:09:59.683Z,0.20
2022-12-07T07:12:28.428Z,0.57
2022-12-07T07:14:57.542Z,0.20
2022-12-07T07:17:26.063Z,0.28
2022-12-07T07:19:54.593Z,0.20
2022-12-07T07:22:23.043Z,0.50
2022-12-07T07:24:52.949Z,0.40
2022-12-07T07:27:23.269Z,0.38
2022-12-07T07:29:52.638Z,0.25
2022-12-07T07:32:22.611Z,0.40
2022-12-07T07:34:51.050Z,0.40
2022-12-07T07:37:22.120Z,0.32
2022-12-07T07:39:52.059Z,0.55
2022-12-07T07:42:23.239Z,0.22
2022-12-07T07:44:51.604Z,0.40
2022-12-07T07:47:19.916Z,0.30
2022-12-07T07:49:48.515Z,0.43
2022-12-07T07:52:16.872Z,0.60
2022-12-07T07:54:45.175Z,0.30
2022-12-07T07:57:14.886Z,0.73
2022-12-07T07:59:43.230Z,0.38
2022-12-07T08:02:12.750Z,0.35
2022-12-07T08:04:41.187Z,0.40
2022-12-07T08:07:09.554Z,0.40
2022-12-07T08:09:40.142Z,0.30
2022-12-07T08:12:08.588Z,0.40
2022-12-07T08:14:38.300Z,0.28
2022-12-07T08:17:06.602Z,0.47
2022-12-07T08:19:35.589Z,0.68
2022-12-07T08:22:04.267Z,0.63
2022-12-07T08:24:35.741Z,0.82
2022-12-07T08:27:04.057Z,0.75
2022-12-07T08:29:32.444Z,0.60
2022-12-07T08:32:06.563Z,0.57
2022-12-07T08:34:37.955Z,0.45
2022-12-07T08:37:06.361Z,0.70
2022-12-07T08:39:37.771Z,0.70
2022-12-07T08:42:06.311Z,0.88
2022-12-07T08:44:34.621Z,0.75
2022-12-07T08:47:07.466Z,0.70
2022-12-07T08:49:37.977Z,0.88
2022-12-07T08:52:07.003Z,0.68
2022-12-07T08:54:35.645Z,1.02
2022-12-07T08:57:04.115Z,1.10
2022-12-07T08:59:33.048Z,0.80
2022-12-07T09:02:01.398Z,1.00
2022-12-07T09:04:31.110Z,1.02
2022-12-07T09:06:59.442Z,0.90
2022-12-07T09:09:27.848Z,1.00
2022-12-07T09:11:56.214Z,1.17
2022-12-07T09:14:24.670Z,1.27
2022-12-07T09:16:53.039Z,1.10
2022-12-07T09:19:21.412Z,1.00
2022-12-07T09:21:51.143Z,1.40
2022-12-07T09:24:23.590Z,1.00
2022-12-07T09:26:53.036Z,1.15
2022-12-07T09:29:21.377Z,0.93
2022-12-07T09:31:52.689Z,1.00
2022-12-07T09:34:21.156Z,0.88
2022-12-07T09:36:50.928Z,0.63
2022-12-07T09:39:19.785Z,0.90
2022-12-07T09:41:48.104Z,1.02
2022-12-07T09:44:19.216Z,0.80
2022-12-07T09:46:48.036Z,0.90
2022-12-07T09:49:18.801Z,1.42
2022-12-07T09:51:47.183Z,0.88
2022-12-07T09:54:18.740Z,0.68
2022-12-07T09:56:48.201Z,0.90
2022-12-07T09:59:19.508Z,0.93
2022-12-07T10:01:50.913Z,0.80
2022-12-07T10:04:20.472Z,0.88
2022-12-07T10:06:49.243Z,0.90
2022-12-07T10:09:19.524Z,0.70
2022-12-07T10:12:01.287Z,0.60
2022-12-07T10:14:58.833Z,0.60
2022-12-07T10:17:41.656Z,0.95
2022-12-07T10:20:22.057Z,0.60
2022-12-07T10:22:58.496Z,0.73
2022-12-07T10:25:31.327Z,0.88
2022-12-07T10:28:00.821Z,0.60
2022-12-07T10:30:29.287Z,0.52
2022-12-07T10:33:00.601Z,0.57
2022-12-07T10:35:29.681Z,0.65
2022-12-07T10:37:59.749Z,0.50
2022-12-07T10:40:32.197Z,0.68
2022-12-07T10:43:04.996Z,0.60
2022-12-07T10:45:38.725Z,0.70
2022-12-07T10:48:12.604Z,0.57
2022-12-07T10:50:54.444Z,0.68
2022-12-07T10:53:42.776Z,1.02
2022-12-07T10:56:42.232Z,0.70
2022-12-07T10:59:26.873Z,0.40
2022-12-07T11:01:59.315Z,0.50
2022-12-07T11:04:32.732Z,0.40
2022-12-07T11:07:03.780Z,0.65
2022-12-07T11:12:52.671Z,0.85
2022-12-07T11:15:23.242Z,0.68
2022-12-07T11:17:54.891Z,0.60
2022-12-07T11:20:37.215Z,0.60
2022-12-07T11:23:08.521Z,0.50
2022-12-07T11:25:39.051Z,0.40
2022-12-07T11:28:23.138Z,0.50
2022-12-07T11:30:54.394Z,0.57
2022-12-07T11:33:27.221Z,0.50
2022-12-07T11:36:01.593Z,0.55
2022-12-07T11:38:34.020Z,0.60
2022-12-07T11:41:13.889Z,0.52
2022-12-07T11:44:07.018Z,0.50
2022-12-07T11:46:46.063Z,0.40
2022-12-07T11:49:16.970Z,0.60
2022-12-07T11:51:45.338Z,0.32
2022-12-07T11:54:16.368Z,0.40
2022-12-07T11:56:44.756Z,0.50
2022-12-07T11:59:15.845Z,0.60
2022-12-07T12:01:53.301Z,0.57
2022-12-07T12:04:28.961Z,0.40
2022-12-07T12:06:57.351Z,0.40
2022-12-07T12:15:26.031Z,0.47
2022-12-07T12:18:13.270Z,0.68
2022-12-07T12:20:43.193Z,0.40
2022-12-07T12:23:14.075Z,0.35
2022-12-07T12:25:43.563Z,0.40
2022-12-07T12:28:22.211Z,0.45
2022-12-07T12:31:08.072Z,0.52
2022-12-07T12:33:36.448Z,0.32
2022-12-07T12:36:25.526Z,0.40
2022-12-07T12:39:09.502Z,0.38
2022-12-07T12:42:09.336Z,0.40
2022-12-07T12:45:19.351Z,0.22
2022-12-07T12:48:06.985Z,0.40
2022-12-07T12:53:14.889Z,0.40
2022-12-07T12:56:00.123Z,0.40
2022-12-07T12:58:32.493Z,0.35
2022-12-07T13:01:49.471Z,0.28
2022-12-07T13:04:41.915Z,0.30
2022-12-07T13:07:14.209Z,0.35
2022-12-07T13:09:45.297Z,0.32
2022-12-07T13:12:17.034Z,0.20
2022-12-07T13:15:22.130Z,0.38
2022-12-07T13:18:04.128Z,0.40
2022-12-07T13:20:56.329Z,0.20
2022-12-07T13:23:32.460Z,0.25
2022-12-07T13:26:17.147Z,0.30
2022-12-07T13:28:47.414Z,0.40
2022-12-07T13:31:28.099Z,0.30
2022-12-07T13:33:56.389Z,0.40
2022-12-07T13:36:26.841Z,0.30
2022-12-07T13:38:58.653Z,0.30
2022-12-07T13:41:27.523Z,0.20
2022-12-07T13:44:02.274Z,0.52
2022-12-07T13:46:40.184Z,0.30
2022-12-07T13:49:19.539Z,0.40
2022-12-07T13:51:49.297Z,0.38
2022-12-07T13:54:17.607Z,0.40
2022-12-07T13:56:46.749Z,0.32
2022-12-07T13:59:16.639Z,0.40
2022-12-07T14:01:45.624Z,0.32
2022-12-07T14:04:33.414Z,0.57
2022-12-07T14:07:03.507Z,0.30
2022-12-07T14:09:32.246Z,0.30
2022-12-07T14:12:02.511Z,0.30
2022-12-07T14:14:36.622Z,0.20
2022-12-07T14:17:16.051Z,0.32
2022-12-07T14:19:50.075Z,0.28
2022-12-07T14:22:28.011Z,0.40
2022-12-07T14:25:18.933Z,0.47
2022-12-07T14:27:56.771Z,0.50
2022-12-07T14:30:26.570Z,0.28
2022-12-07T14:32:56.378Z,0.43
2022-12-07T14:35:24.747Z,0.50
2022-12-07T14:37:54.501Z,0.47
2022-12-07T14:40:23.575Z,0.43
2022-12-07T14:42:53.411Z,0.40
2022-12-07T14:45:22.984Z,0.90
2022-12-07T14:53:36.580Z,0.30
2022-12-07T14:56:06.349Z,0.47
2022-12-07T14:58:34.708Z,0.30
2022-12-07T15:01:03.080Z,0.30
2022-12-07T15:03:31.727Z,0.25
2022-12-07T15:06:00.089Z,0.40
2022-12-07T15:08:28.567Z,0.43
2022-12-07T15:11:00.085Z,0.32
2022-12-07T15:13:47.840Z,0.40
2022-12-07T15:18:58.636Z,0.30
2022-12-07T15:21:33.794Z,0.50
2022-12-07T15:24:02.181Z,0.40
2022-12-07T15:26:32.354Z,0.30
2022-12-07T15:29:01.015Z,0.50
2022-12-07T15:31:54.578Z,0.20
2022-12-07T15:34:18.046Z,0.22
2022-12-07T15:36:46.683Z,0.25
2022-12-07T15:39:15.612Z,0.40
2022-12-07T15:41:45.967Z,0.47
2022-12-07T15:44:32.038Z,0.30
2022-12-07T15:47:00.598Z,0.40
2022-12-07T15:49:29.208Z,0.20
2022-12-07T15:51:57.970Z,0.38
2022-12-07T15:54:27.616Z,0.52
2022-12-07T15:56:57.612Z,0.20
2022-12-07T15:59:26.803Z,0.20
2022-12-07T16:01:55.288Z,0.28
2022-12-07T16:04:23.673Z,0.30
2022-12-07T16:06:52.815Z,0.40
2022-12-07T16:09:24.313Z,0.20
2022-12-07T16:11:53.193Z,0.38
2022-12-07T16:14:23.265Z,0.35
2022-12-07T16:16:54.354Z,0.20
2022-12-07T16:19:22.839Z,0.30
2022-12-07T16:21:51.224Z,0.30
2022-12-07T16:24:19.883Z,0.40
2022-12-07T16:26:50.470Z,0.20
2022-12-07T16:29:19.129Z,0.20
2022-12-07T16:31:49.098Z,0.20
2022-12-07T16:34:17.577Z,0.20
2022-12-07T16:37:04.212Z,0.30
2022-12-07T16:42:03.695Z,0.30
2022-12-07T16:44:32.870Z,0.30
2022-12-07T16:47:02.748Z,0.40
2022-12-07T16:49:31.399Z,0.30
2022-12-07T16:52:20.457Z,0.50
2022-12-07T16:54:48.930Z,0.32
2022-12-07T16:57:22.455Z,0.40
2022-12-07T16:59:52.028Z,0.30
2022-12-07T17:02:22.021Z,0.30
2022-12-07T17:04:50.522Z,0.40
2022-12-07T17:07:18.861Z,1.27
2022-12-07T17:09:47.317Z,0.85
2022-12-07T17:12:15.894Z,1.10
2022-12-07T17:15:02.433Z,0.85
2022-12-07T17:17:33.294Z,1.17
2022-12-07T17:20:02.055Z,1.50
2022-12-07T17:22:30.443Z,1.38
2022-12-07T17:24:59.075Z,1.90
2022-12-07T17:27:27.483Z,1.90
2022-12-07T17:29:55.820Z,2.13
2022-12-07T17:32:24.330Z,2.13
2022-12-07T17:34:54.195Z,2.67
2022-12-07T17:37:22.650Z,2.40
2022-12-07T17:39:51.083Z,2.50
2022-12-07T17:42:40.011Z,2.58
2022-12-07T17:45:10.309Z,2.40
2022-12-07T17:47:38.860Z,2.17
2022-12-07T17:50:10.131Z,2.20
2022-12-07T17:52:57.046Z,2.70
2022-12-07T17:55:25.838Z,2.43
2022-12-07T17:57:54.296Z,2.17
2022-12-07T18:00:22.920Z,2.42
2022-12-07T18:02:51.402Z,2.05
2022-12-07T18:05:21.672Z,3.10
2022-12-07T18:07:50.534Z,2.17
2022-12-07T18:10:19.247Z,2.30
2022-12-07T18:12:52.091Z,2.38
2022-12-07T18:15:23.218Z,2.80
2022-12-07T18:17:52.049Z,3.03
2022-12-07T18:20:23.066Z,3.33
2022-12-07T18:22:54.299Z,3.40
2022-12-07T18:25:22.848Z,5.45
2022-12-07T18:27:54.018Z,5.13
2022-12-07T18:30:49.600Z,5.32
2022-12-07T18:33:13.483Z,5.75
2022-12-07T18:35:43.447Z,5.82
2022-12-07T18:38:12.002Z,4.35
2022-12-07T18:40:40.468Z,4.88
2022-12-07T18:43:09.057Z,5.57
2022-12-07T18:45:40.875Z,5.45
2022-12-07T18:48:09.500Z,4.57
2022-12-07T18:50:37.936Z,5.03
2022-12-07T18:53:10.974Z,5.22
2022-12-07T18:55:39.327Z,5.25
2022-12-07T18:58:07.855Z,4.35
2022-12-07T19:00:36.493Z,4.50
2022-12-07T19:03:05.798Z,4.13
2022-12-07T19:05:34.202Z,4.97
2022-12-07T19:08:02.946Z,4.22
2022-12-07T19:10:32.743Z,4.60
2022-12-07T19:13:02.329Z,3.97
2022-12-07T19:15:30.669Z,4.65
2022-12-07T19:17:58.980Z,3.95
2022-12-07T19:20:27.749Z,4.22
2022-12-07T19:22:56.099Z,4.50
2022-12-07T19:25:24.461Z,3.70
2022-12-07T19:27:54.218Z,4.53
2022-12-07T19:30:22.713Z,3.50
2022-12-07T19:32:51.150Z,3.33
2022-12-07T19:35:19.755Z,3.90
2022-12-07T19:37:48.142Z,3.88
2022-12-07T19:40:16.657Z,3.67
2022-12-07T19:42:44.992Z,3.38
2022-12-07T19:45:14.711Z,3.42
2022-12-07T19:47:44.324Z,3.88
2022-12-07T19:50:13.101Z,3.60
2022-12-07T19:52:42.035Z,2.95
2022-12-07T19:55:10.508Z,3.03
2022-12-07T19:57:38.893Z,3.40
2022-12-07T20:00:08.690Z,2.95
2022-12-07T20:02:38.471Z,2.92
2022-12-07T20:05:07.571Z,2.83
2022-12-07T20:07:38.956Z,2.90
2022-12-07T20:10:08.779Z,2.75
2022-12-07T20:12:55.172Z,2.72
2022-12-07T20:15:23.487Z,2.85
2022-12-07T20:17:53.357Z,2.80
2022-12-07T20:20:21.708Z,3.00
2022-12-07T20:22:50.092Z,2.67
2022-12-07T20:25:20.072Z,2.30
2022-12-07T20:27:48.487Z,1.92
2022-12-07T20:30:17.317Z,2.10
2022-12-07T20:32:45.794Z,2.15
2022-12-07T20:35:15.676Z,1.83
2022-12-07T20:37:44.025Z,2.10
2022-12-07T20:40:13.156Z,1.70
2022-12-07T20:42:41.489Z,1.55
2022-12-07T20:45:12.085Z,1.20
2022-12-07T20:47:40.668Z,1.35
2022-12-07T20:50:10.601Z,1.38
2022-12-07T20:52:41.686Z,1.20
2022-12-07T20:55:10.488Z,1.40
2022-12-07T20:57:39.263Z,1.08
2022-12-07T21:00:08.957Z,1.10
2022-12-07T21:02:39.914Z,1.10
2022-12-07T21:05:08.999Z,1.30
2022-12-07T21:07:38.285Z,0.82
2022-12-07T21:10:09.695Z,0.90
2022-12-07T21:12:38.109Z,1.15
2022-12-07T21:15:08.265Z,0.90
2022-12-07T21:17:36.821Z,0.80
2022-12-07T21:20:05.817Z,0.90
2022-12-07T21:22:34.163Z,0.80
2022-12-07T21:25:02.980Z,0.73
2022-12-07T21:27:33.012Z,0.80
2022-12-07T21:30:01.675Z,0.63
2022-12-07T21:32:30.231Z,0.80
2022-12-07T21:34:58.919Z,1.20
2022-12-07T21:37:27.570Z,0.52
2022-12-07T21:39:56.240Z,0.90
2022-12-07T21:42:24.805Z,0.90
2022-12-07T21:44:54.974Z,0.70
2022-12-07T21:47:23.577Z,0.70
2022-12-07T21:49:52.447Z,0.80
2022-12-07T21:52:21.208Z,0.80
2022-12-07T21:54:50.697Z,0.80
2022-12-07T21:57:19.421Z,0.50
2022-12-07T21:59:48.766Z,0.47
2022-12-07T22:02:19.292Z,0.60
2022-12-07T22:04:48.632Z,0.70
2022-12-07T22:07:17.176Z,0.80
2022-12-07T22:09:45.955Z,0.98
2022-12-07T22:12:14.331Z,0.60
2022-12-07T22:15:00.602Z,0.57
2022-12-07T22:17:31.366Z,0.63
2022-12-07T22:19:59.665Z,0.80
2022-12-07T22:22:27.948Z,0.60
2022-12-07T22:24:57.043Z,0.85
2022-12-07T22:27:25.405Z,0.90
2022-12-07T22:29:53.741Z,0.82
2022-12-07T22:35:11.727Z,1.05
2022-12-07T22:37:40.216Z,0.70
2022-12-07T22:40:09.518Z,0.93
2022-12-07T22:42:37.857Z,0.60
2022-12-07T22:45:07.187Z,0.82
2022-12-07T22:47:35.685Z,1.25
2022-12-07T22:50:05.381Z,0.88
2022-12-07T22:52:35.097Z,0.57
2022-12-07T22:55:03.848Z,0.50
2022-12-07T22:57:32.477Z,0.70
2022-12-07T23:00:00.765Z,0.65
2022-12-07T23:02:29.101Z,0.80
2022-12-07T23:04:57.543Z,0.98
2022-12-07T23:07:25.902Z,0.50
2022-12-07T23:09:55.628Z,0.50
2022-12-07T23:12:41.478Z,0.70
2022-12-07T23:15:11.034Z,0.40
2022-12-07T23:17:39.330Z,0.47
2022-12-07T23:20:08.621Z,0.60
2022-12-07T23:22:36.982Z,0.60
2022-12-07T23:25:07.739Z,0.65
2022-12-07T23:27:36.777Z,0.65
2022-12-07T23:30:06.030Z,0.47
2022-12-07T23:32:34.332Z,0.45
2022-12-07T23:35:02.960Z,0.65
2022-12-07T23:37:31.402Z,0.45
2022-12-07T23:39:59.692Z,0.57
2022-12-07T23:42:29.409Z,0.73
2022-12-07T23:44:57.766Z,0.40
2022-12-07T23:47:26.082Z,0.30
2022-12-07T23:49:54.377Z,0.50
2022-12-07T23:52:22.681Z,0.52
2022-12-07T23:54:50.984Z,0.40
2022-12-07T23:57:19.267Z,0.30
2022-12-07T23:59:49.166Z,0.55
